Iago, Texas
Current Conditions -  °F | °C
As of 9:35 PM on Sunday 21 Dec 2014 (Local Time) from KARM Reporting Station
Overcast Overcast  
Wind Chill: 56°   Ceiling: 4000
Heat Index: 56°   Visibility: 7mi
Dew Point: 54°   Wind: 5mph
Humidity: 94%   Direction: 120°ESE
Pressure: 29.91"   Gusts: NA
Location:  29.2399°N, 95.9345°W
Report Text: KARM 220335Z AUTO 12004KT 7SM OVC040 13/12 A2991 RMK AO2 T01320123
Loading
Personal Weather Stations






























Interactive Weather Map New forecast layout! Learn more

10-Day Weather Forecast

Advertisements
Track Severe Weather on mobile